createdAt,value
2022-09-03T00:01:37.217Z,29
2022-09-03T00:04:10.211Z,28
2022-09-03T00:07:00.363Z,28
2022-09-03T00:09:33.185Z,27
2022-09-03T00:12:06.457Z,30
2022-09-03T00:14:39.408Z,28
2022-09-03T00:17:12.009Z,28
2022-09-03T00:19:45.071Z,28
2022-09-03T00:22:23.014Z,28
2022-09-03T00:24:58.969Z,25
2022-09-03T00:27:31.339Z,24
2022-09-03T00:30:03.957Z,28
2022-09-03T00:32:37.020Z,28
2022-09-03T00:35:09.585Z,27
2022-09-03T00:37:42.520Z,28
2022-09-03T00:40:18.383Z,32
2022-09-03T00:42:50.286Z,28
2022-09-03T00:45:22.808Z,28
2022-09-03T00:47:56.589Z,27
2022-09-03T00:50:29.367Z,28
2022-09-03T00:53:02.970Z,24
2022-09-03T00:55:35.833Z,28
2022-09-03T00:58:11.145Z,28
2022-09-03T01:00:43.046Z,28
2022-09-03T01:03:17.831Z,27
2022-09-03T01:05:51.364Z,28
2022-09-03T01:08:24.410Z,24
2022-09-03T01:10:57.048Z,27
2022-09-03T01:13:29.969Z,24
2022-09-03T01:16:02.532Z,25
2022-09-03T01:18:35.157Z,24
2022-09-03T01:21:07.401Z,28
2022-09-03T01:23:40.060Z,30
2022-09-03T01:26:12.633Z,28
2022-09-03T01:28:45.372Z,27
2022-09-03T01:31:18.153Z,28
2022-09-03T01:33:50.821Z,27
2022-09-03T01:36:23.245Z,28
2022-09-03T01:38:55.797Z,28
2022-09-03T01:41:28.729Z,28
2022-09-03T01:44:01.306Z,28
2022-09-03T01:46:34.078Z,25
2022-09-03T01:49:06.400Z,28
2022-09-03T01:51:39.139Z,25
2022-09-03T01:54:21.701Z,24
2022-09-03T01:56:52.941Z,28
2022-09-03T01:59:25.531Z,28
2022-09-03T02:01:58.457Z,30
2022-09-03T02:04:30.855Z,28
2022-09-03T02:07:03.414Z,32
2022-09-03T02:09:35.681Z,27
2022-09-03T02:12:08.607Z,28
2022-09-03T02:14:41.064Z,28
2022-09-03T02:17:13.947Z,28
2022-09-03T02:19:49.740Z,24
2022-09-03T02:22:21.931Z,28
2022-09-03T02:24:54.427Z,28
2022-09-03T02:27:28.227Z,27
2022-09-03T02:30:03.512Z,28
2022-09-03T02:32:40.191Z,28
2022-09-03T02:35:13.822Z,28
2022-09-03T02:37:46.355Z,28
2022-09-03T02:40:20.923Z,28
2022-09-03T02:42:53.747Z,24
2022-09-03T02:45:26.589Z,24
2022-09-03T02:47:59.245Z,24
2022-09-03T02:50:31.847Z,24
2022-09-03T02:53:04.339Z,24
2022-09-03T02:55:38.862Z,28
2022-09-03T02:58:11.587Z,24
2022-09-03T03:00:44.258Z,27
2022-09-03T03:03:16.791Z,20
2022-09-03T03:05:49.765Z,28
2022-09-03T03:08:22.415Z,26
2022-09-03T03:10:55.349Z,24
2022-09-03T03:13:28.074Z,28
2022-09-03T03:16:00.830Z,27
2022-09-03T03:18:36.261Z,24
2022-09-03T03:21:09.168Z,26
2022-09-03T03:23:41.601Z,22
2022-09-03T03:26:14.517Z,25
2022-09-03T03:28:47.310Z,28
2022-09-03T03:31:20.154Z,24
2022-09-03T03:33:52.943Z,26
2022-09-03T03:36:25.830Z,26
2022-09-03T03:38:58.482Z,24
2022-09-03T03:41:31.846Z,27
2022-09-03T03:44:04.715Z,24
2022-09-03T03:46:37.374Z,21
2022-09-03T03:49:10.032Z,26
2022-09-03T03:51:42.705Z,24
2022-09-03T03:54:18.285Z,24
2022-09-03T03:56:55.973Z,24
2022-09-03T03:59:27.720Z,25
2022-09-03T04:02:00.359Z,24
2022-09-03T04:04:32.882Z,24
2022-09-03T04:07:08.745Z,28
2022-09-03T04:09:40.321Z,28
2022-09-03T04:12:12.927Z,28
2022-09-03T04:14:45.385Z,28
2022-09-03T04:17:25.336Z,24
2022-09-03T04:19:56.594Z,28
2022-09-03T04:22:28.896Z,24
2022-09-03T04:25:02.026Z,25
2022-09-03T04:27:34.713Z,28
2022-09-03T04:30:07.682Z,28
2022-09-03T04:32:41.156Z,28
2022-09-03T04:35:13.531Z,24
2022-09-03T04:37:46.205Z,28
2022-09-03T04:40:19.125Z,24
2022-09-03T04:42:52.029Z,25
2022-09-03T04:45:24.645Z,28
2022-09-03T04:47:58.239Z,28
2022-09-03T04:50:30.967Z,28
2022-09-03T04:53:08.403Z,28
2022-09-03T04:55:40.206Z,28
2022-09-03T04:58:13.000Z,28
2022-09-03T05:00:45.693Z,28
2022-09-03T05:03:18.299Z,28
2022-09-03T05:05:52.861Z,27
2022-09-03T05:08:24.738Z,28
2022-09-03T05:10:57.561Z,28
2022-09-03T05:13:30.432Z,25
2022-09-03T05:16:03.366Z,28
2022-09-03T05:18:35.944Z,24
2022-09-03T05:21:09.065Z,28
2022-09-03T05:23:41.625Z,27
2022-09-03T05:26:14.177Z,24
2022-09-03T05:28:47.106Z,22
2022-09-03T05:31:19.921Z,24
2022-09-03T05:33:52.485Z,27
2022-09-03T05:36:25.398Z,27
2022-09-03T05:38:59.048Z,27
2022-09-03T05:41:31.369Z,28
2022-09-03T05:44:03.826Z,29
2022-09-03T05:46:36.046Z,24
2022-09-03T05:49:07.987Z,24
2022-09-03T05:51:40.560Z,30
2022-09-03T05:54:13.374Z,26
2022-09-03T05:56:45.757Z,28
2022-09-03T05:59:18.430Z,30
2022-09-03T06:01:58.131Z,28
2022-09-03T06:04:33.688Z,29
2022-09-03T06:07:05.687Z,28
2022-09-03T06:09:38.214Z,32
2022-09-03T06:12:10.700Z,28
2022-09-03T06:14:43.329Z,24
2022-09-03T06:17:15.821Z,32
2022-09-03T06:19:50.531Z,26
2022-09-03T06:22:27.138Z,28
2022-09-03T06:24:58.871Z,28
2022-09-03T06:27:31.629Z,35
2022-09-03T06:30:04.214Z,32
2022-09-03T06:32:40.445Z,42
2022-09-03T06:35:12.844Z,46
2022-09-03T06:37:45.080Z,34
2022-09-03T06:40:17.285Z,31
2022-09-03T06:42:49.219Z,28
2022-09-03T06:45:21.356Z,30
2022-09-03T06:47:53.631Z,28
2022-09-03T06:50:26.156Z,33
2022-09-03T06:53:08.501Z,29
2022-09-03T06:55:41.251Z,36
2022-09-03T06:58:15.209Z,37
2022-09-03T07:00:48.379Z,29
2022-09-03T07:03:21.328Z,28
2022-09-03T07:05:55.853Z,25
2022-09-03T07:08:28.491Z,22
2022-09-03T07:11:01.118Z,40
2022-09-03T07:13:33.281Z,28
2022-09-03T07:16:06.350Z,28
2022-09-03T07:18:38.999Z,21
2022-09-03T07:21:12.429Z,24
2022-09-03T07:23:45.740Z,30
2022-09-03T07:26:18.771Z,28
2022-09-03T07:28:51.823Z,24
2022-09-03T07:31:24.054Z,23
2022-09-03T07:34:05.509Z,23
2022-09-03T07:36:41.813Z,28
2022-09-03T07:39:15.030Z,28
2022-09-03T07:41:48.521Z,23
2022-09-03T07:44:20.243Z,28
2022-09-03T07:46:52.844Z,23
2022-09-03T07:49:25.772Z,20
2022-09-03T07:51:58.546Z,17
2022-09-03T07:54:31.263Z,20
2022-09-03T07:57:04.293Z,20
2022-09-03T07:59:37.210Z,16
2022-09-03T08:02:10.146Z,20
2022-09-03T08:04:42.642Z,22
2022-09-03T08:07:15.094Z,20
2022-09-03T08:09:47.653Z,20
2022-09-03T08:12:20.329Z,20
2022-09-03T08:14:53.977Z,22
2022-09-03T08:17:29.320Z,20
2022-09-03T08:20:01.893Z,21
2022-09-03T08:22:34.704Z,20
2022-09-03T08:25:13.693Z,17
2022-09-03T08:27:45.147Z,21
2022-09-03T08:30:17.944Z,20
2022-09-03T08:32:50.260Z,17
2022-09-03T08:35:22.741Z,20
2022-09-03T08:37:57.390Z,21
2022-09-03T08:40:29.865Z,27
2022-09-03T08:43:07.133Z,32
2022-09-03T08:45:38.533Z,27
2022-09-03T08:48:11.097Z,28
2022-09-03T08:50:44.048Z,28
2022-09-03T08:53:16.441Z,23
2022-09-03T08:55:48.741Z,20
2022-09-03T08:58:21.731Z,24
2022-09-03T09:00:54.814Z,23
2022-09-03T09:03:27.598Z,20
2022-09-03T09:06:00.205Z,24
2022-09-03T09:08:32.904Z,28
2022-09-03T09:11:05.534Z,20
2022-09-03T09:13:38.047Z,24
2022-09-03T09:16:10.677Z,27
2022-09-03T09:18:43.460Z,20
2022-09-03T09:21:24.271Z,27
2022-09-03T09:23:58.555Z,24
2022-09-03T09:26:30.874Z,24
2022-09-03T09:29:04.039Z,20
2022-09-03T09:31:40.658Z,20
2022-09-03T09:34:13.327Z,21
2022-09-03T09:36:45.856Z,21
2022-09-03T09:39:18.738Z,24
2022-09-03T09:41:51.555Z,20
2022-09-03T09:44:24.445Z,24
2022-09-03T09:46:56.908Z,20
2022-09-03T09:49:29.520Z,20
2022-09-03T09:52:02.894Z,21
2022-09-03T09:54:36.207Z,24
2022-09-03T09:57:08.892Z,28
2022-09-03T09:59:41.609Z,24
2022-09-03T10:02:22.713Z,20
2022-09-03T10:04:54.331Z,30
2022-09-03T10:07:27.155Z,28
2022-09-03T10:10:00.017Z,27
2022-09-03T10:12:32.091Z,28
2022-09-03T10:15:04.417Z,27
2022-09-03T10:17:37.801Z,24
2022-09-03T10:20:10.347Z,24
2022-09-03T10:22:57.582Z,18
2022-09-03T10:25:28.148Z,26
2022-09-03T10:28:01.657Z,24
2022-09-03T10:30:33.752Z,17
2022-09-03T10:33:06.103Z,22
2022-09-03T10:35:38.599Z,18
2022-09-03T10:38:11.445Z,16
2022-09-03T10:40:44.086Z,20
2022-09-03T10:43:16.661Z,20
2022-09-03T10:45:49.618Z,16
2022-09-03T10:48:22.209Z,20
2022-09-03T10:50:55.156Z,19
2022-09-03T10:53:28.384Z,28
2022-09-03T10:56:00.825Z,26
2022-09-03T10:58:34.948Z,18
2022-09-03T11:01:06.982Z,27
2022-09-03T11:03:40.031Z,32
2022-09-03T11:06:12.617Z,19
2022-09-03T11:08:45.453Z,22
2022-09-03T11:11:18.181Z,16
2022-09-03T11:13:50.575Z,17
2022-09-03T11:16:23.493Z,17
2022-09-03T11:18:58.195Z,16
2022-09-03T11:21:31.227Z,20
2022-09-03T11:24:04.154Z,20
2022-09-03T11:26:40.749Z,16
2022-09-03T11:29:14.072Z,12
2022-09-03T11:31:49.221Z,16
2022-09-03T11:34:32.978Z,16
2022-09-03T11:37:04.443Z,20
2022-09-03T11:39:37.300Z,16
2022-09-03T11:42:10.223Z,21
2022-09-03T11:44:52.059Z,16
2022-09-03T11:47:23.331Z,24
2022-09-03T11:49:55.980Z,16
2022-09-03T11:52:28.601Z,19
2022-09-03T11:55:01.117Z,15
2022-09-03T11:57:33.925Z,16
2022-09-03T12:00:06.937Z,16
2022-09-03T12:02:40.009Z,20
2022-09-03T12:05:12.479Z,16
2022-09-03T12:07:45.123Z,16
2022-09-03T12:10:17.457Z,17
2022-09-03T12:12:50.313Z,16
2022-09-03T12:15:23.404Z,20
2022-09-03T12:17:56.689Z,16
2022-09-03T12:20:29.839Z,16
2022-09-03T12:23:02.774Z,16
2022-09-03T12:25:35.993Z,16
2022-09-03T12:28:09.341Z,16
2022-09-03T12:30:42.723Z,18
2022-09-03T12:33:15.450Z,16
2022-09-03T12:36:03.329Z,35
2022-09-03T12:39:10.735Z,18
2022-09-03T12:41:52.989Z,16
2022-09-03T12:44:25.670Z,16
2022-09-03T12:47:37.497Z,16
2022-09-03T12:50:08.703Z,15
2022-09-03T12:52:40.976Z,12
2022-09-03T12:55:14.193Z,12
2022-09-03T12:57:46.605Z,13
2022-09-03T13:00:18.970Z,20
2022-09-03T13:02:51.429Z,24
2022-09-03T13:05:24.643Z,36
2022-09-03T13:07:57.222Z,36
2022-09-03T13:10:30.193Z,40
2022-09-03T13:13:02.887Z,48
2022-09-03T13:15:34.841Z,24
2022-09-03T13:18:07.659Z,41
2022-09-03T13:20:39.616Z,32
2022-09-03T13:23:12.029Z,16
2022-09-03T13:25:44.479Z,24
2022-09-03T13:28:17.107Z,24
2022-09-03T13:30:49.276Z,39
2022-09-03T13:33:29.251Z,25
2022-09-03T13:36:01.218Z,40
2022-09-03T13:38:37.719Z,36
2022-09-03T13:41:08.944Z,35
2022-09-03T13:43:41.044Z,31
2022-09-03T13:46:13.332Z,25
2022-09-03T13:48:45.459Z,16
2022-09-03T13:51:21.265Z,12
2022-09-03T13:53:53.225Z,24
2022-09-03T13:56:25.690Z,25
2022-09-03T13:58:57.820Z,24
2022-09-03T14:01:30.178Z,44
2022-09-03T14:04:02.502Z,48
2022-09-03T14:06:35.041Z,32
2022-09-03T14:09:07.081Z,40
2022-09-03T14:11:39.450Z,32
2022-09-03T14:14:11.996Z,26
2022-09-03T14:16:44.323Z,40
2022-09-03T14:19:17.369Z,33
2022-09-03T14:21:50.377Z,28
2022-09-03T14:24:23.157Z,28
2022-09-03T14:26:55.854Z,24
2022-09-03T14:29:28.853Z,40
2022-09-03T14:32:01.406Z,40
2022-09-03T14:34:34.066Z,39
2022-09-03T14:37:07.067Z,44
2022-09-03T14:39:39.752Z,44
2022-09-03T14:42:12.755Z,45
2022-09-03T14:44:45.867Z,40
2022-09-03T14:47:18.237Z,48
2022-09-03T14:49:50.914Z,40
2022-09-03T14:52:23.675Z,40
2022-09-03T14:54:57.471Z,37
2022-09-03T14:57:30.004Z,64
2022-09-03T15:00:02.762Z,28
2022-09-03T15:02:35.912Z,32
2022-09-03T15:05:12.381Z,32
2022-09-03T15:07:44.156Z,28
2022-09-03T15:10:17.092Z,29
2022-09-03T15:12:49.910Z,36
2022-09-03T15:15:22.786Z,28
2022-09-03T15:17:55.433Z,32
2022-09-03T15:20:31.483Z,41
2022-09-03T15:23:04.043Z,70
2022-09-03T15:25:36.813Z,40
2022-09-03T15:28:09.292Z,42
2022-09-03T15:30:41.886Z,40
2022-09-03T15:33:15.006Z,35
2022-09-03T15:35:47.309Z,44
2022-09-03T15:38:19.504Z,40
2022-09-03T15:40:51.433Z,32
2022-09-03T15:43:23.805Z,32
2022-09-03T15:45:56.727Z,36
2022-09-03T15:48:30.060Z,32
2022-09-03T15:51:02.168Z,39
2022-09-03T15:53:35.747Z,36
2022-09-03T15:56:14.094Z,36
2022-09-03T15:58:45.764Z,33
2022-09-03T16:01:18.170Z,36
2022-09-03T16:03:50.106Z,40
2022-09-03T16:06:22.721Z,36
2022-09-03T16:08:55.542Z,32
2022-09-03T16:11:28.645Z,33
2022-09-03T16:14:01.075Z,36
2022-09-03T16:16:34.681Z,36
2022-09-03T16:19:07.121Z,48
2022-09-03T16:21:39.750Z,43
2022-09-03T16:24:13.168Z,44
2022-09-03T16:26:44.082Z,38
2022-09-03T16:29:17.187Z,48
2022-09-03T16:31:50.717Z,48
2022-09-03T16:34:25.258Z,48
2022-09-03T16:36:57.694Z,44
2022-09-03T16:39:30.965Z,47
2022-09-03T16:42:03.908Z,40
2022-09-03T16:44:36.622Z,41
2022-09-03T16:47:11.621Z,40
2022-09-03T16:49:47.180Z,40
2022-09-03T16:52:19.944Z,43
2022-09-03T16:55:07.470Z,40
2022-09-03T16:57:40.252Z,40
2022-09-03T17:00:12.664Z,44
2022-09-03T17:02:45.931Z,46
2022-09-03T17:05:19.195Z,44
2022-09-03T17:07:52.707Z,44
2022-09-03T17:10:25.145Z,51
2022-09-03T17:13:00.724Z,56
2022-09-03T17:15:33.716Z,50
2022-09-03T17:18:07.598Z,49
2022-09-03T17:20:40.491Z,49
2022-09-03T17:23:19.999Z,48
2022-09-03T17:25:52.961Z,54
2022-09-03T17:28:26.020Z,40
2022-09-03T17:30:58.372Z,41
2022-09-03T17:33:32.506Z,44
2022-09-03T17:36:05.399Z,44
2022-09-03T17:38:37.152Z,44
2022-09-03T17:41:09.801Z,47
2022-09-03T17:43:42.660Z,45
2022-09-03T17:46:15.751Z,48
2022-09-03T17:48:47.785Z,44
2022-09-03T17:51:20.735Z,49
2022-09-03T17:53:53.522Z,52
2022-09-03T17:56:26.814Z,48
2022-09-03T17:58:58.744Z,47
2022-09-03T18:01:31.144Z,47
2022-09-03T18:04:05.887Z,48
2022-09-03T18:06:38.325Z,48
2022-09-03T18:09:11.759Z,47
2022-09-03T18:11:48.001Z,51
2022-09-03T18:14:19.516Z,73
2022-09-03T18:16:52.790Z,61
2022-09-03T18:19:27.821Z,48
2022-09-03T18:22:00.729Z,68
2022-09-03T18:24:33.520Z,48
2022-09-03T18:27:05.903Z,47
2022-09-03T18:29:40.393Z,52
2022-09-03T18:32:12.839Z,48
2022-09-03T18:34:45.829Z,48
2022-09-03T18:37:18.740Z,49
2022-09-03T18:39:51.551Z,50
2022-09-03T18:42:24.398Z,51
2022-09-03T18:45:21.784Z,48
2022-09-03T18:50:30.619Z,49
2022-09-03T18:53:03.304Z,93
2022-09-03T18:55:35.646Z,49
2022-09-03T18:58:07.782Z,48
2022-09-03T19:00:40.478Z,50
2022-09-03T19:03:16.111Z,68
2022-09-03T19:05:47.776Z,68
2022-09-03T19:08:20.359Z,60
2022-09-03T19:10:53.324Z,52
2022-09-03T19:13:26.483Z,56
2022-09-03T19:15:59.737Z,61
2022-09-03T19:18:32.019Z,56
2022-09-03T19:21:08.290Z,52
2022-09-03T19:23:40.778Z,52
2022-09-03T19:26:13.758Z,49
2022-09-03T19:28:46.746Z,52
2022-09-03T19:31:20.191Z,48
2022-09-03T19:33:52.880Z,51
2022-09-03T19:36:25.740Z,48
2022-09-03T19:38:58.967Z,52
2022-09-03T19:41:31.437Z,47
2022-09-03T19:44:04.715Z,52
2022-09-03T19:46:37.243Z,49
2022-09-03T19:49:11.062Z,52
2022-09-03T19:51:44.147Z,48
2022-09-03T19:54:16.790Z,51
2022-09-03T19:56:49.963Z,52
2022-09-03T19:59:22.346Z,49
2022-09-03T20:01:55.832Z,48
2022-09-03T20:04:28.998Z,52
2022-09-03T20:07:01.471Z,48
2022-09-03T20:09:34.232Z,49
2022-09-03T20:12:10.523Z,52
2022-09-03T20:14:42.417Z,52
2022-09-03T20:17:16.005Z,54
2022-09-03T20:19:49.384Z,52
2022-09-03T20:22:25.293Z,52
2022-09-03T20:25:00.023Z,71
2022-09-03T20:27:32.228Z,52
2022-09-03T20:30:04.854Z,52
2022-09-03T20:32:37.504Z,45
2022-09-03T20:35:10.246Z,48
2022-09-03T20:37:43.107Z,52
2022-09-03T20:40:15.623Z,52
2022-09-03T20:42:48.370Z,52
2022-09-03T20:45:21.699Z,49
2022-09-03T20:47:54.207Z,49
2022-09-03T20:50:26.792Z,52
2022-09-03T20:53:00.009Z,58
2022-09-03T20:55:32.688Z,52
2022-09-03T20:58:06.006Z,57
2022-09-03T21:00:39.007Z,56
2022-09-03T21:03:12.061Z,52
2022-09-03T21:05:45.030Z,51
2022-09-03T21:08:18.063Z,48
2022-09-03T21:10:51.327Z,48
2022-09-03T21:13:24.499Z,53
2022-09-03T21:15:57.355Z,56
2022-09-03T21:18:30.332Z,52
2022-09-03T21:21:07.045Z,56
2022-09-03T21:23:40.220Z,56
2022-09-03T21:26:12.617Z,57
2022-09-03T21:28:44.962Z,60
2022-09-03T21:31:18.253Z,56
2022-09-03T21:33:51.615Z,59
2022-09-03T21:36:24.483Z,54
2022-09-03T21:38:57.215Z,56
2022-09-03T21:41:29.487Z,52
2022-09-03T21:44:02.072Z,52
2022-09-03T21:46:35.198Z,52
2022-09-03T21:49:08.067Z,60
2022-09-03T21:51:40.779Z,59
2022-09-03T21:54:13.399Z,52
2022-09-03T21:56:49.771Z,52
2022-09-03T21:59:23.320Z,60
2022-09-03T22:01:56.174Z,55
2022-09-03T22:04:29.204Z,52
2022-09-03T22:07:02.295Z,56
2022-09-03T22:09:34.737Z,59
2022-09-03T22:12:07.334Z,63
2022-09-03T22:14:40.159Z,55
2022-09-03T22:17:12.126Z,52
2022-09-03T22:19:45.019Z,57
2022-09-03T22:22:18.359Z,56
2022-09-03T22:24:50.985Z,56
2022-09-03T22:27:23.993Z,58
2022-09-03T22:29:56.500Z,60
2022-09-03T22:32:29.027Z,60
2022-09-03T22:35:01.528Z,56
2022-09-03T22:37:34.161Z,56
2022-09-03T22:40:06.695Z,54
2022-09-03T22:42:39.240Z,59
2022-09-03T22:45:12.055Z,64
2022-09-03T22:47:45.892Z,60
2022-09-03T22:50:17.130Z,52
2022-09-03T22:52:49.707Z,56
2022-09-03T22:55:25.133Z,60
2022-09-03T22:57:57.042Z,53
2022-09-03T23:00:29.514Z,59
2022-09-03T23:03:02.706Z,60
2022-09-03T23:05:36.240Z,56
2022-09-03T23:08:08.892Z,62
2022-09-03T23:10:41.623Z,56
2022-09-03T23:13:13.413Z,60
2022-09-03T23:15:46.204Z,54
2022-09-03T23:18:18.722Z,53
2022-09-03T23:20:51.251Z,55
2022-09-03T23:23:23.883Z,58
2022-09-03T23:25:56.639Z,56
2022-09-03T23:28:29.477Z,57
2022-09-03T23:31:04.861Z,58
2022-09-03T23:33:37.118Z,60
2022-09-03T23:36:10.066Z,56
2022-09-03T23:38:43.282Z,52
2022-09-03T23:41:16.592Z,59
2022-09-03T23:43:49.405Z,60
2022-09-03T23:46:22.547Z,60
2022-09-03T23:48:55.462Z,59
2022-09-03T23:51:28.150Z,60
2022-09-03T23:54:00.923Z,64
2022-09-03T23:56:33.400Z,60
2022-09-03T23:59:05.919Z,57
